createdAt,value
2018-06-19T00:01:54.328Z,4.80
2018-06-19T00:03:57.830Z,4.57
2018-06-19T00:06:01.610Z,4.63
2018-06-19T00:08:05.239Z,4.57
2018-06-19T00:10:08.805Z,4.13
2018-06-19T00:12:12.292Z,4.30
2018-06-19T00:14:16.753Z,4.07
2018-06-19T00:16:20.336Z,4.47
2018-06-19T00:18:26.590Z,4.07
2018-06-19T00:20:30.138Z,4.40
2018-06-19T00:22:33.634Z,4.53
2018-06-19T00:24:37.149Z,4.37
2018-06-19T00:26:40.695Z,4.40
2018-06-19T00:28:45.898Z,3.87
2018-06-19T00:30:50.075Z,3.87
2018-06-19T00:32:53.546Z,4.00
2018-06-19T00:34:57.028Z,4.40
2018-06-19T00:37:00.637Z,4.30
2018-06-19T00:39:06.418Z,4.60
2018-06-19T00:41:09.931Z,4.70
2018-06-19T00:43:13.430Z,4.10
2018-06-19T00:45:17.031Z,4.10
2018-06-19T00:47:20.527Z,4.07
2018-06-19T00:49:24.049Z,4.40
2018-06-19T00:51:27.635Z,4.67
2018-06-19T00:53:31.112Z,4.13
2018-06-19T00:55:34.591Z,4.80
2018-06-19T00:57:38.107Z,4.23
2018-06-19T00:59:41.605Z,4.53
2018-06-19T01:01:45.105Z,3.60
2018-06-19T01:03:48.606Z,4.33
2018-06-19T01:05:52.115Z,4.60
2018-06-19T01:07:55.590Z,4.50
2018-06-19T01:10:00.025Z,4.07
2018-06-19T01:12:03.595Z,4.80
2018-06-19T01:14:07.107Z,4.50
2018-06-19T01:16:10.603Z,4.70
2018-06-19T01:18:14.047Z,4.33
2018-06-19T01:20:17.616Z,4.43
2018-06-19T01:22:21.329Z,4.40
2018-06-19T01:24:24.929Z,5.20
2018-06-19T01:26:28.459Z,4.67
2018-06-19T01:28:32.018Z,4.63
2018-06-19T01:30:35.484Z,5.40
2018-06-19T01:32:38.665Z,4.43
2018-06-19T01:34:42.185Z,4.70
2018-06-19T01:36:45.660Z,4.70
2018-06-19T01:38:56.715Z,4.83
2018-06-19T01:41:00.273Z,4.23
2018-06-19T01:43:03.845Z,4.40
2018-06-19T01:45:07.330Z,4.40
2018-06-19T01:47:10.907Z,4.67
2018-06-19T01:49:14.416Z,4.60
2018-06-19T01:51:18.651Z,4.20
2018-06-19T01:53:22.208Z,4.30
2018-06-19T01:55:25.777Z,4.60
2018-06-19T01:57:29.260Z,4.60
2018-06-19T01:59:32.751Z,4.13
2018-06-19T02:01:36.231Z,4.70
2018-06-19T02:03:39.729Z,4.63
2018-06-19T02:05:43.239Z,4.30
2018-06-19T02:07:46.815Z,4.57
2018-06-19T02:09:50.367Z,4.73
2018-06-19T02:11:53.872Z,4.77
2018-06-19T02:13:57.401Z,4.80
2018-06-19T02:16:00.932Z,4.80
2018-06-19T02:18:04.455Z,4.43
2018-06-19T02:20:08.283Z,5.27
2018-06-19T02:22:11.770Z,4.30
2018-06-19T02:24:15.249Z,4.87
2018-06-19T02:26:18.747Z,4.37
2018-06-19T02:28:22.296Z,4.97
2018-06-19T02:30:25.883Z,4.10
2018-06-19T02:32:29.396Z,5.03
2018-06-19T02:34:32.987Z,5.03
2018-06-19T02:36:36.485Z,5.33
2018-06-19T02:38:39.991Z,4.77
2018-06-19T02:40:43.583Z,4.93
2018-06-19T02:42:47.088Z,5.00
2018-06-19T02:44:50.551Z,4.93
2018-06-19T02:46:54.060Z,4.53
2018-06-19T02:48:57.562Z,4.90
2018-06-19T02:51:01.047Z,4.60
2018-06-19T02:53:04.806Z,4.87
2018-06-19T02:55:08.334Z,4.07
2018-06-19T02:57:11.836Z,4.67
2018-06-19T02:59:15.417Z,5.20
2018-06-19T03:01:18.788Z,4.60
2018-06-19T03:03:22.251Z,5.23
2018-06-19T03:05:25.726Z,4.47
2018-06-19T03:07:29.315Z,4.73
2018-06-19T03:09:32.784Z,5.03
2018-06-19T03:11:36.363Z,5.40
2018-06-19T03:13:39.903Z,4.70
2018-06-19T03:15:43.462Z,4.60
2018-06-19T03:17:46.947Z,5.03
2018-06-19T03:19:50.424Z,4.57
2018-06-19T03:21:53.936Z,5.00
2018-06-19T03:24:00.299Z,4.77
2018-06-19T03:26:03.775Z,5.07
2018-06-19T03:28:07.256Z,5.40
2018-06-19T03:30:10.741Z,5.50
2018-06-19T03:32:14.339Z,4.80
2018-06-19T03:34:17.853Z,5.53
2018-06-19T03:36:21.356Z,5.17
2018-06-19T03:38:24.875Z,4.90
2018-06-19T03:40:28.355Z,5.07
2018-06-19T03:42:31.834Z,5.53
2018-06-19T03:44:35.286Z,4.57
2018-06-19T03:46:38.915Z,5.90
2018-06-19T03:48:42.372Z,4.93
2018-06-19T03:50:46.019Z,5.03
2018-06-19T03:52:49.512Z,5.17
2018-06-19T03:54:52.975Z,5.43
2018-06-19T03:56:56.481Z,5.90
2018-06-19T03:58:59.939Z,5.13
2018-06-19T04:01:03.514Z,5.43
2018-06-19T04:03:07.058Z,4.90
2018-06-19T04:05:10.603Z,5.13
2018-06-19T04:07:14.175Z,5.20
2018-06-19T04:09:17.641Z,5.60
2018-06-19T04:11:21.165Z,5.20
2018-06-19T04:13:24.695Z,5.63
2018-06-19T04:15:28.336Z,5.47
2018-06-19T04:17:31.879Z,5.33
2018-06-19T04:19:35.354Z,5.50
2018-06-19T04:21:38.936Z,5.47
2018-06-19T04:23:42.425Z,6.03
2018-06-19T04:25:45.930Z,6.40
2018-06-19T04:27:49.575Z,6.10
2018-06-19T04:29:53.081Z,6.90
2018-06-19T04:31:56.691Z,6.17
2018-06-19T04:34:00.176Z,5.93
2018-06-19T04:36:03.656Z,6.20
2018-06-19T04:38:07.225Z,5.93
2018-06-19T04:40:10.720Z,6.33
2018-06-19T04:42:14.320Z,6.20
2018-06-19T04:44:17.835Z,6.43
2018-06-19T04:46:21.327Z,6.17
2018-06-19T04:48:24.844Z,6.20
2018-06-19T04:50:28.022Z,6.50
2018-06-19T04:52:31.560Z,6.47
2018-06-19T04:54:35.226Z,6.37
2018-06-19T04:56:38.726Z,7.03
2018-06-19T04:58:42.286Z,7.37
2018-06-19T05:00:45.765Z,7.10
2018-06-19T05:02:49.286Z,6.57
2018-06-19T05:04:52.798Z,6.97
2018-06-19T05:06:57.672Z,6.73
2018-06-19T05:09:01.260Z,6.20
2018-06-19T05:11:04.732Z,6.27
2018-06-19T05:13:08.241Z,5.77
2018-06-19T05:15:11.743Z,6.57
2018-06-19T05:17:15.301Z,5.70
2018-06-19T05:19:18.790Z,6.40
2018-06-19T05:21:22.363Z,6.63
2018-06-19T05:23:25.918Z,5.77
2018-06-19T05:25:29.414Z,5.53
2018-06-19T05:27:32.711Z,5.80
2018-06-19T05:29:36.182Z,5.63
2018-06-19T05:31:39.850Z,5.80
2018-06-19T05:33:43.322Z,6.17
2018-06-19T05:35:46.957Z,6.13
2018-06-19T05:37:50.531Z,4.77
2018-06-19T05:39:54.051Z,5.00
2018-06-19T05:41:57.528Z,4.80
2018-06-19T05:44:01.035Z,5.00
2018-06-19T05:46:04.587Z,4.10
2018-06-19T05:48:08.135Z,4.03
2018-06-19T05:50:11.694Z,4.10
2018-06-19T05:52:15.193Z,3.90
2018-06-19T05:54:18.656Z,3.33
2018-06-19T05:56:22.143Z,3.70
2018-06-19T05:58:25.339Z,3.37
2018-06-19T06:00:29.291Z,3.53
2018-06-19T06:02:32.850Z,3.00
2018-06-19T06:04:36.347Z,3.00
2018-06-19T06:06:39.861Z,3.40
2018-06-19T06:08:43.600Z,3.17
2018-06-19T06:10:47.075Z,3.00
2018-06-19T06:12:50.607Z,3.10
2018-06-19T06:14:54.075Z,3.30
2018-06-19T06:16:57.575Z,3.17
2018-06-19T06:19:01.071Z,2.90
2018-06-19T06:21:04.637Z,3.17
2018-06-19T06:23:08.335Z,3.00
2018-06-19T06:25:11.968Z,2.97
2018-06-19T06:27:15.429Z,3.30
2018-06-19T06:29:18.912Z,2.80
2018-06-19T06:31:22.469Z,2.70
2018-06-19T06:33:25.892Z,2.80
2018-06-19T06:35:29.380Z,2.60
2018-06-19T06:37:32.851Z,2.63
2018-06-19T06:39:36.339Z,2.53
2018-06-19T06:41:39.870Z,3.00
2018-06-19T06:43:43.647Z,2.83
2018-06-19T06:45:47.123Z,2.67
2018-06-19T06:47:50.769Z,2.53
2018-06-19T06:49:54.295Z,2.73
2018-06-19T06:51:57.828Z,2.83
2018-06-19T06:54:01.307Z,2.57
2018-06-19T06:56:05.155Z,2.53
2018-06-19T06:58:08.667Z,2.10
2018-06-19T07:00:12.163Z,2.50
2018-06-19T07:02:15.624Z,2.20
2018-06-19T07:04:19.152Z,2.20
2018-06-19T07:06:22.791Z,2.20
2018-06-19T07:08:26.377Z,2.23
2018-06-19T07:10:29.867Z,2.27
2018-06-19T07:12:33.324Z,1.97
2018-06-19T07:14:36.808Z,2.00
2018-06-19T07:16:40.293Z,2.10
2018-06-19T07:18:44.002Z,2.37
2018-06-19T07:20:47.458Z,2.00
2018-06-19T07:22:50.899Z,2.00
2018-06-19T07:24:54.489Z,2.20
2018-06-19T07:26:57.955Z,2.10
2018-06-19T07:29:01.596Z,1.80
2018-06-19T07:31:05.183Z,1.90
2018-06-19T07:33:08.639Z,1.80
2018-06-19T07:35:12.111Z,1.80
2018-06-19T07:37:15.619Z,1.90
2018-06-19T07:39:19.113Z,1.80
2018-06-19T07:41:22.571Z,2.00
2018-06-19T07:43:29.135Z,1.90
2018-06-19T07:45:33.115Z,2.03
2018-06-19T07:47:36.600Z,1.60
2018-06-19T07:49:40.167Z,1.60
2018-06-19T07:51:43.642Z,1.43
2018-06-19T07:53:47.173Z,1.50
2018-06-19T07:55:50.683Z,1.73
2018-06-19T07:57:54.320Z,1.70
2018-06-19T07:59:57.948Z,1.77
2018-06-19T08:02:01.561Z,1.60
2018-06-19T08:04:05.237Z,1.40
2018-06-19T08:06:08.785Z,4.00
2018-06-19T08:08:11.962Z,1.67
2018-06-19T08:10:15.546Z,1.70
2018-06-19T08:12:19.055Z,1.60
2018-06-19T08:14:22.639Z,1.40
2018-06-19T08:16:26.106Z,1.30
2018-06-19T08:18:29.587Z,1.50
2018-06-19T08:20:33.180Z,1.50
2018-06-19T08:22:36.779Z,1.20
2018-06-19T08:24:40.816Z,1.30
2018-06-19T08:26:44.478Z,1.30
2018-06-19T08:28:47.984Z,1.20
2018-06-19T08:30:51.555Z,1.60
2018-06-19T08:32:54.695Z,1.30
2018-06-19T08:34:58.314Z,1.30
2018-06-19T08:37:01.879Z,1.10
2018-06-19T08:39:08.538Z,1.30
2018-06-19T08:41:12.210Z,1.10
2018-06-19T08:43:15.354Z,1.43
2018-06-19T08:45:18.916Z,1.27
2018-06-19T08:47:22.511Z,1.40
2018-06-19T08:49:26.040Z,1.23
2018-06-19T08:51:29.508Z,1.37
2018-06-19T08:53:33.071Z,1.33
2018-06-19T08:55:36.597Z,1.60
2018-06-19T08:57:40.372Z,1.60
2018-06-19T08:59:43.855Z,1.40
2018-06-19T09:01:47.039Z,1.50
2018-06-19T09:03:50.599Z,1.80
2018-06-19T09:05:54.135Z,1.50
2018-06-19T09:07:57.924Z,1.40
2018-06-19T09:10:01.427Z,1.10
2018-06-19T09:12:04.957Z,1.20
2018-06-19T09:14:08.456Z,1.10
2018-06-19T09:16:13.611Z,1.40
2018-06-19T09:18:17.084Z,1.30
2018-06-19T09:20:20.813Z,1.20
2018-06-19T09:22:24.270Z,1.20
2018-06-19T09:24:27.860Z,1.50
2018-06-19T09:26:31.352Z,1.53
2018-06-19T09:28:34.835Z,1.30
2018-06-19T09:30:38.373Z,1.50
2018-06-19T09:32:41.900Z,1.80
2018-06-19T09:34:45.467Z,1.53
2018-06-19T09:36:49.034Z,1.70
2018-06-19T09:38:52.519Z,1.67
2018-06-19T09:40:56.137Z,1.97
2018-06-19T09:42:59.609Z,1.90
2018-06-19T09:45:03.113Z,1.90
2018-06-19T09:47:06.602Z,1.63
2018-06-19T09:49:10.217Z,1.40
2018-06-19T09:51:13.712Z,1.37
2018-06-19T09:53:17.557Z,1.73
2018-06-19T09:55:21.247Z,1.43
2018-06-19T09:57:25.711Z,1.40
2018-06-19T09:59:29.330Z,1.40
2018-06-19T10:01:33.038Z,1.60
2018-06-19T10:03:36.860Z,1.63
2018-06-19T10:05:40.588Z,1.80
2018-06-19T10:07:44.035Z,1.60
2018-06-19T10:09:47.655Z,1.50
2018-06-19T10:11:51.247Z,1.40
2018-06-19T10:13:54.734Z,1.60
2018-06-19T10:15:58.212Z,1.60
2018-06-19T10:18:01.736Z,1.60
2018-06-19T10:20:05.268Z,1.60
2018-06-19T10:22:08.832Z,1.50
2018-06-19T10:24:12.753Z,1.50
2018-06-19T10:26:16.613Z,1.50
2018-06-19T10:28:20.084Z,1.40
2018-06-19T10:30:23.587Z,1.50
2018-06-19T10:32:27.163Z,1.27
2018-06-19T10:34:30.692Z,1.40
2018-06-19T10:36:34.104Z,1.40
2018-06-19T10:38:37.758Z,1.40
2018-06-19T10:40:41.290Z,1.30
2018-06-19T10:42:44.799Z,1.60
2018-06-19T10:44:48.477Z,1.70
2018-06-19T10:46:51.640Z,1.50
2018-06-19T10:48:55.498Z,1.90
2018-06-19T10:50:58.966Z,1.43
2018-06-19T10:53:02.564Z,1.77
2018-06-19T10:55:05.719Z,1.80
2018-06-19T10:57:09.326Z,1.40
2018-06-19T10:59:12.775Z,1.33
2018-06-19T11:01:16.283Z,1.47
2018-06-19T11:03:19.867Z,1.33
2018-06-19T11:05:23.480Z,1.30
2018-06-19T11:07:30.016Z,1.10
2018-06-19T11:09:33.562Z,1.50
2018-06-19T11:11:37.078Z,1.63
2018-06-19T11:13:40.585Z,1.80
2018-06-19T11:15:44.120Z,1.77
2018-06-19T11:17:49.044Z,1.57
2018-06-19T11:19:52.537Z,1.60
2018-06-19T11:21:56.124Z,1.70
2018-06-19T11:23:59.635Z,1.53
2018-06-19T11:26:03.132Z,1.63
2018-06-19T11:28:06.742Z,1.40
2018-06-19T11:30:10.218Z,1.40
2018-06-19T11:32:14.263Z,1.50
2018-06-19T11:34:17.816Z,1.47
2018-06-19T11:36:21.312Z,1.50
2018-06-19T11:38:24.895Z,1.43
2018-06-19T11:40:28.403Z,1.70
2018-06-19T11:42:32.024Z,1.77
2018-06-19T11:44:35.597Z,1.87
2018-06-19T11:46:38.745Z,1.40
2018-06-19T11:48:41.918Z,1.50
2018-06-19T11:50:45.411Z,1.32
2018-06-19T11:52:48.879Z,1.30
2018-06-19T11:54:52.568Z,1.53
2018-06-19T11:56:56.143Z,1.57
2018-06-19T11:58:59.559Z,1.30
2018-06-19T12:01:03.208Z,1.50
2018-06-19T12:03:06.434Z,1.23
2018-06-19T12:05:09.980Z,1.10
2018-06-19T12:07:13.473Z,1.13
2018-06-19T12:09:16.971Z,1.15
2018-06-19T12:11:20.520Z,1.10
2018-06-19T12:13:24.103Z,1.40
2018-06-19T12:15:27.676Z,1.42
2018-06-19T12:17:31.234Z,1.57
2018-06-19T12:19:34.698Z,1.60
2018-06-19T12:21:38.830Z,1.35
2018-06-19T12:23:42.459Z,1.70
2018-06-19T12:25:45.963Z,2.08
2018-06-19T12:27:49.544Z,1.82
2018-06-19T12:29:53.124Z,2.65
2018-06-19T12:31:56.695Z,2.00
2018-06-19T12:34:00.188Z,1.73
2018-06-19T12:36:03.894Z,1.43
2018-06-19T12:38:07.420Z,1.40
2018-06-19T12:40:10.907Z,1.40
2018-06-19T12:42:14.415Z,1.30
2018-06-19T12:44:17.916Z,1.72
2018-06-19T12:46:21.400Z,1.53
2018-06-19T12:48:24.971Z,1.40
2018-06-19T12:50:43.175Z,1.37
2018-06-19T12:52:57.986Z,1.20
2018-06-19T12:55:19.436Z,1.57
2018-06-19T12:57:22.983Z,1.47
2018-06-19T12:59:26.466Z,1.60
2018-06-19T13:01:29.951Z,1.30
2018-06-19T13:03:44.701Z,1.55
2018-06-19T13:05:59.304Z,1.40
2018-06-19T13:08:02.751Z,1.60
2018-06-19T13:10:06.328Z,1.20
2018-06-19T13:12:20.979Z,1.60
2018-06-19T13:14:36.820Z,1.50
2018-06-19T13:17:51.938Z,1.47
2018-06-19T13:20:06.429Z,1.67
2018-06-19T13:22:09.895Z,1.75
2018-06-19T13:24:13.408Z,1.30
2018-06-19T13:26:16.897Z,1.60
2018-06-19T13:28:20.701Z,1.32
2018-06-19T13:30:35.428Z,1.57
2018-06-19T13:32:39.462Z,1.40
2018-06-19T13:34:42.925Z,1.80
2018-06-19T13:36:46.405Z,1.60
2018-06-19T13:38:49.931Z,1.40
2018-06-19T13:41:07.034Z,1.45
2018-06-19T13:45:25.128Z,1.70
2018-06-19T13:47:28.647Z,1.45
2018-06-19T13:49:32.208Z,1.50
2018-06-19T13:51:35.655Z,1.50
2018-06-19T13:53:39.323Z,1.87
2018-06-19T13:57:19.123Z,1.65
2018-06-19T13:59:22.631Z,1.52
2018-06-19T14:01:26.162Z,1.20
2018-06-19T14:03:29.680Z,1.30
2018-06-19T14:05:33.272Z,1.40
2018-06-19T14:08:11.403Z,1.30
2018-06-19T14:10:28.322Z,1.20
2018-06-19T14:13:13.046Z,1.50
2018-06-19T14:15:16.938Z,1.65
2018-06-19T14:17:20.508Z,1.52
2018-06-19T14:19:24.064Z,1.27
2018-06-19T14:21:27.491Z,1.40
2018-06-19T14:23:30.977Z,1.30
2018-06-19T14:25:34.603Z,1.60
2018-06-19T14:27:38.159Z,1.70
2018-06-19T14:29:41.755Z,1.40
2018-06-19T14:31:45.267Z,1.50
2018-06-19T14:33:48.790Z,1.60
2018-06-19T14:35:52.259Z,1.40
2018-06-19T14:37:55.833Z,1.40
2018-06-19T14:39:59.453Z,1.45
2018-06-19T14:42:03.174Z,1.40
2018-06-19T14:44:06.667Z,1.30
2018-06-19T14:46:10.267Z,1.70
2018-06-19T14:48:20.854Z,1.50
2018-06-19T14:50:24.396Z,1.50
2018-06-19T14:52:28.060Z,1.52
2018-06-19T14:54:31.603Z,1.32
2018-06-19T14:56:35.148Z,1.20
2018-06-19T14:58:38.655Z,1.57
2018-06-19T15:00:42.210Z,1.40
2018-06-19T15:02:45.672Z,1.25
2018-06-19T15:04:49.242Z,1.40
2018-06-19T15:06:52.820Z,1.47
2018-06-19T15:08:56.364Z,1.27
2018-06-19T15:10:59.928Z,1.60
2018-06-19T15:13:03.548Z,1.57
2018-06-19T15:15:07.071Z,1.17
2018-06-19T15:17:11.100Z,1.40
2018-06-19T15:19:14.696Z,1.67
2018-06-19T15:21:18.170Z,1.45
2018-06-19T15:23:21.728Z,1.40
2018-06-19T15:25:25.230Z,1.35
2018-06-19T15:27:28.665Z,1.50
2018-06-19T15:29:32.223Z,1.32
2018-06-19T15:31:35.722Z,1.27
2018-06-19T15:33:39.208Z,1.50
2018-06-19T15:35:43.034Z,1.60
2018-06-19T15:37:46.574Z,1.30
2018-06-19T15:39:50.018Z,1.55
2018-06-19T15:41:53.544Z,1.30
2018-06-19T15:43:56.706Z,1.20
2018-06-19T15:46:00.355Z,1.27
2018-06-19T15:48:04.053Z,1.30
2018-06-19T15:50:07.622Z,1.40
2018-06-19T15:52:11.119Z,1.60
2018-06-19T15:54:14.672Z,1.12
2018-06-19T15:56:18.158Z,1.30
2018-06-19T15:58:21.666Z,1.22
2018-06-19T16:00:25.203Z,1.30
2018-06-19T16:02:28.724Z,1.20
2018-06-19T16:04:32.274Z,1.40
2018-06-19T16:06:35.822Z,1.12
2018-06-19T16:08:39.317Z,1.10
2018-06-19T16:10:42.914Z,1.00
2018-06-19T16:12:46.484Z,1.17
2018-06-19T16:14:50.008Z,1.07
2018-06-19T16:16:53.532Z,1.00
2018-06-19T16:18:57.004Z,1.35
2018-06-19T16:21:00.543Z,0.95
2018-06-19T16:23:04.127Z,0.90
2018-06-19T16:25:07.656Z,1.42
2018-06-19T16:27:11.155Z,1.02
2018-06-19T16:29:14.755Z,1.12
2018-06-19T16:31:17.917Z,1.50
2018-06-19T16:33:21.411Z,1.00
2018-06-19T16:35:24.917Z,1.20
2018-06-19T16:37:28.424Z,1.12
2018-06-19T16:39:31.948Z,1.07
2018-06-19T16:41:35.531Z,1.10
2018-06-19T16:43:39.026Z,1.22
2018-06-19T16:45:42.651Z,1.20
2018-06-19T16:47:46.151Z,1.10
2018-06-19T16:49:49.659Z,1.27
2018-06-19T16:51:53.300Z,1.20
2018-06-19T16:53:56.912Z,1.07
2018-06-19T16:56:00.428Z,1.40
2018-06-19T16:58:03.949Z,1.30
2018-06-19T17:00:07.819Z,1.15
2018-06-19T17:02:10.957Z,1.00
2018-06-19T17:04:14.513Z,1.10
2018-06-19T17:06:18.035Z,1.00
2018-06-19T17:08:21.586Z,1.30
2018-06-19T17:10:25.195Z,1.50
2018-06-19T17:12:28.805Z,1.10
2018-06-19T17:14:32.419Z,1.20
2018-06-19T17:16:36.048Z,1.20
2018-06-19T17:18:39.626Z,1.50
2018-06-19T17:20:43.185Z,1.32
2018-06-19T17:22:46.683Z,1.15
2018-06-19T17:24:50.168Z,1.22
2018-06-19T17:26:53.344Z,1.30
2018-06-19T17:28:57.098Z,1.32
2018-06-19T17:31:00.628Z,1.40
2018-06-19T17:33:05.661Z,0.98
2018-06-19T17:35:09.289Z,1.27
2018-06-19T17:37:12.786Z,1.40
2018-06-19T17:39:16.292Z,1.30
2018-06-19T17:41:19.803Z,1.40
2018-06-19T17:43:23.316Z,1.30
2018-06-19T17:45:26.930Z,1.27
2018-06-19T17:47:30.480Z,1.22
2018-06-19T17:49:33.983Z,1.30
2018-06-19T17:51:37.553Z,1.22
2018-06-19T17:53:41.053Z,1.40
2018-06-19T17:55:44.663Z,1.25
2018-06-19T17:57:48.173Z,1.17
2018-06-19T17:59:51.444Z,0.98
2018-06-19T18:01:55.088Z,1.22
2018-06-19T18:03:58.633Z,1.10
2018-06-19T18:06:02.155Z,1.40
2018-06-19T18:08:06.020Z,1.37
2018-06-19T18:10:09.567Z,1.30
2018-06-19T18:12:15.579Z,1.30
2018-06-19T18:14:19.123Z,1.52
2018-06-19T18:16:22.657Z,1.17
2018-06-19T18:18:26.170Z,1.37
2018-06-19T18:20:29.685Z,1.55
2018-06-19T18:22:33.227Z,1.30
2018-06-19T18:24:36.752Z,1.27
2018-06-19T18:26:40.339Z,1.20
2018-06-19T18:28:43.824Z,1.42
2018-06-19T18:30:47.350Z,1.27
2018-06-19T18:32:51.051Z,1.20
2018-06-19T18:34:54.566Z,1.22
2018-06-19T18:36:58.111Z,1.50
2018-06-19T18:39:01.636Z,1.67
2018-06-19T18:41:05.181Z,1.40
2018-06-19T18:43:08.799Z,1.30
2018-06-19T18:45:12.346Z,1.40
2018-06-19T18:47:15.856Z,1.33
2018-06-19T18:49:19.542Z,1.40
2018-06-19T18:51:23.067Z,1.20
2018-06-19T18:53:26.898Z,1.42
2018-06-19T18:55:30.748Z,1.73
2018-06-19T18:57:34.249Z,1.82
2018-06-19T18:59:38.161Z,1.43
2018-06-19T19:01:41.719Z,1.57
2018-06-19T19:03:45.295Z,1.70
2018-06-19T19:05:48.881Z,1.47
2018-06-19T19:07:52.497Z,1.67
2018-06-19T19:10:01.296Z,1.82
2018-06-19T19:12:04.849Z,1.60
2018-06-19T19:14:08.480Z,1.50
2018-06-19T19:16:17.218Z,1.50
2018-06-19T19:18:26.166Z,2.03
2018-06-19T19:20:29.728Z,2.20
2018-06-19T19:22:33.328Z,1.87
2018-06-19T19:24:36.836Z,1.90
2018-06-19T19:26:45.802Z,2.00
2018-06-19T19:28:54.581Z,2.08
2018-06-19T19:30:58.304Z,2.00
2018-06-19T19:33:01.863Z,1.77
2018-06-19T19:35:05.381Z,1.80
2018-06-19T19:37:14.180Z,1.97
2018-06-19T19:39:24.394Z,2.00
2018-06-19T19:41:27.937Z,2.10
2018-06-19T19:43:31.510Z,1.23
2018-06-19T19:45:35.064Z,1.73
2018-06-19T19:47:44.031Z,1.70
2018-06-19T19:49:47.580Z,1.80
2018-06-19T19:51:51.211Z,1.70
2018-06-19T19:53:54.714Z,1.80
2018-06-19T19:56:03.653Z,1.83
2018-06-19T19:58:12.592Z,2.00
2018-06-19T20:00:19.575Z,2.07
2018-06-19T20:02:23.163Z,2.60
2018-06-19T20:04:26.345Z,2.57
2018-06-19T20:06:29.935Z,2.10
2018-06-19T20:08:33.527Z,1.90
2018-06-19T20:10:37.050Z,1.90
2018-06-19T20:12:40.571Z,1.77
2018-06-19T20:14:44.100Z,1.83
2018-06-19T20:16:47.603Z,1.83
2018-06-19T20:18:51.116Z,1.90
2018-06-19T20:20:54.624Z,2.27
2018-06-19T20:23:00.279Z,1.83
2018-06-19T20:25:04.037Z,2.10
2018-06-19T20:27:07.561Z,2.00
2018-06-19T20:29:11.140Z,1.70
2018-06-19T20:31:14.619Z,1.90
2018-06-19T20:33:18.163Z,1.50
2018-06-19T20:35:21.727Z,2.33
2018-06-19T20:37:25.331Z,2.37
2018-06-19T20:39:28.824Z,2.20
2018-06-19T20:41:32.397Z,2.67
2018-06-19T20:43:35.904Z,2.60
2018-06-19T20:45:39.419Z,2.43
2018-06-19T20:47:42.928Z,2.50
2018-06-19T20:49:46.483Z,2.33
2018-06-19T20:51:49.983Z,2.63
2018-06-19T20:53:53.597Z,2.60
2018-06-19T20:55:57.089Z,2.20
2018-06-19T20:58:01.511Z,2.43
2018-06-19T21:00:05.171Z,2.27
2018-06-19T21:02:08.745Z,2.43
2018-06-19T21:04:12.444Z,2.67
2018-06-19T21:06:16.004Z,2.40
2018-06-19T21:08:19.648Z,2.57
2018-06-19T21:10:23.177Z,2.53
2018-06-19T21:12:26.934Z,2.70
2018-06-19T21:14:30.482Z,2.60
2018-06-19T21:16:34.090Z,2.63
2018-06-19T21:18:38.460Z,2.87
2018-06-19T21:20:41.963Z,2.47
2018-06-19T21:22:45.450Z,2.30
2018-06-19T21:24:48.985Z,2.00
2018-06-19T21:26:52.549Z,2.20
2018-06-19T21:28:56.095Z,1.90
2018-06-19T21:30:59.584Z,2.20
2018-06-19T21:33:03.100Z,2.40
2018-06-19T21:35:06.596Z,2.27
2018-06-19T21:37:10.331Z,2.70
2018-06-19T21:39:13.812Z,2.57
2018-06-19T21:41:17.320Z,2.50
2018-06-19T21:43:20.803Z,2.50
2018-06-19T21:45:24.316Z,2.63
2018-06-19T21:47:27.848Z,2.53
2018-06-19T21:49:31.411Z,2.37
2018-06-19T21:51:34.881Z,2.07
2018-06-19T21:53:38.419Z,2.40
2018-06-19T21:55:41.880Z,2.30
2018-06-19T21:57:45.607Z,2.37
2018-06-19T21:59:49.067Z,2.40
2018-06-19T22:01:52.605Z,2.10
2018-06-19T22:03:56.135Z,2.20
2018-06-19T22:05:59.653Z,2.27
2018-06-19T22:08:03.188Z,2.40
2018-06-19T22:10:06.742Z,2.40
2018-06-19T22:12:10.263Z,2.30
2018-06-19T22:14:13.762Z,2.00
2018-06-19T22:16:17.330Z,2.33
2018-06-19T22:18:20.851Z,2.63
2018-06-19T22:20:24.375Z,2.93
2018-06-19T22:22:27.864Z,2.53
2018-06-19T22:24:31.484Z,2.17
2018-06-19T22:26:35.059Z,2.27
2018-06-19T22:28:38.622Z,2.40
2018-06-19T22:30:42.339Z,2.30
2018-06-19T22:32:45.970Z,2.50
2018-06-19T22:34:49.640Z,2.40
2018-06-19T22:36:53.136Z,2.47
2018-06-19T22:38:56.627Z,2.30
2018-06-19T22:41:00.247Z,2.10
2018-06-19T22:43:03.740Z,2.70
2018-06-19T22:45:07.291Z,2.70
2018-06-19T22:47:10.463Z,2.47
2018-06-19T22:49:14.023Z,2.73
2018-06-19T22:51:17.534Z,2.80
2018-06-19T22:53:21.129Z,2.70
2018-06-19T22:55:24.604Z,2.80
2018-06-19T22:57:28.088Z,2.90
2018-06-19T22:59:31.717Z,2.60
2018-06-19T23:01:35.304Z,2.90
2018-06-19T23:03:38.791Z,2.80
2018-06-19T23:05:42.319Z,2.97
2018-06-19T23:07:45.876Z,3.00
2018-06-19T23:09:49.390Z,2.83
2018-06-19T23:11:52.879Z,2.93
2018-06-19T23:13:56.431Z,2.97
2018-06-19T23:15:59.976Z,2.77
2018-06-19T23:18:03.541Z,2.77
2018-06-19T23:20:07.122Z,2.73
2018-06-19T23:22:10.557Z,2.87
2018-06-19T23:24:14.099Z,3.07
2018-06-19T23:26:17.695Z,3.30
2018-06-19T23:28:21.195Z,3.10
2018-06-19T23:30:24.735Z,3.00
2018-06-19T23:32:28.216Z,3.80
2018-06-19T23:34:31.734Z,3.43
2018-06-19T23:36:35.251Z,3.10
2018-06-19T23:38:38.811Z,3.27
2018-06-19T23:40:42.350Z,3.63
2018-06-19T23:42:45.982Z,4.27
2018-06-19T23:44:49.472Z,3.83
2018-06-19T23:46:52.672Z,3.30
2018-06-19T23:48:56.183Z,3.73
2018-06-19T23:50:59.680Z,3.83
2018-06-19T23:53:03.236Z,3.50
2018-06-19T23:55:06.867Z,3.60
2018-06-19T23:57:10.519Z,3.33
2018-06-19T23:59:14.010Z,3.67
